Time;durP1;ratioP1;P1;durP2;ratioP2;P2;SDS_P1;SDS_P2;PMS_P1;PMS_P2;Temp;Humidity;BMP_temperature;BMP_pressure;BME280_temperature;BME280_humidity;BME280_pressure;Samples;Min_cycle;Max_cycle;Signal;HPM_P1;HPM_P2
2021/01/17 00:02:36;;;;;;;41.73;17.10;;;;;;;-4.59;85.71;98593.61;4219825;83;21209;-89
2021/01/17 00:08:38;;;;;;;37.70;16.67;;;;;;;-4.53;85.66;98587.12;4214680;83;21205;-87
2021/01/17 00:14:39;;;;;;;38.80;16.50;;;;;;;-4.57;85.59;98576.73;4219184;83;21214;-89
2021/01/17 00:20:41;;;;;;;37.30;16.97;;;;;;;-4.54;85.50;98574.82;4214160;83;21169;-89
2021/01/17 00:26:43;;;;;;;36.03;13.70;;;;;;;-4.52;85.57;98578.54;4209512;83;21212;-89
2021/01/17 00:32:53;;;;;;;39.60;16.33;;;;;;;-4.53;85.74;98572.42;4222231;83;21218;-90
2021/01/17 00:38:55;;;;;;;38.87;17.33;;;;;;;-4.55;85.99;98577.25;4193348;83;21198;-88
2021/01/17 00:44:56;;;;;;;34.13;15.40;;;;;;;-4.53;86.10;98570.28;4110749;85;21198;-88
2021/01/17 00:50:58;;;;;;;43.73;18.90;;;;;;;-4.50;86.40;98569.17;4115781;85;21143;-88
2021/01/17 00:57:04;;;;;;;40.63;17.63;;;;;;;-4.51;86.22;98569.47;4207898;83;21556;-90
2021/01/17 01:03:08;;;;;;;38.10;17.10;;;;;;;-4.51;86.39;98575.58;4204759;83;21580;-89
2021/01/17 01:09:13;;;;;;;38.53;16.63;;;;;;;-4.53;86.39;98580.44;4171443;83;21594;-88
2021/01/17 01:15:15;;;;;;;43.10;17.30;;;;;;;-4.51;86.37;98590.84;4185597;83;21182;-89
2021/01/17 01:21:25;;;;;;;53.77;25.20;;;;;;;-4.53;86.39;98611.69;4190695;83;21367;-88
2021/01/17 01:27:27;;;;;;;45.87;20.87;;;;;;;-4.56;86.65;98610.39;4107168;85;21202;-90
2021/01/17 01:33:28;;;;;;;27.40;10.77;;;;;;;-4.61;86.70;98610.45;4161217;84;21156;-90
2021/01/17 01:39:30;;;;;;;18.67;7.70;;;;;;;-4.62;86.74;98621.42;4160003;83;21178;-88
2021/01/17 01:45:31;;;;;;;11.53;5.87;;;;;;;-4.73;86.42;98633.30;4134167;84;21483;-90
2021/01/17 01:51:33;;;;;;;21.27;7.50;;;;;;;-4.90;86.11;98639.08;4136274;84;21629;-90
2021/01/17 01:57:35;;;;;;;12.60;6.20;;;;;;;-4.99;85.87;98642.12;4136432;84;21184;-88
2021/01/17 02:03:37;;;;;;;10.60;4.73;;;;;;;-5.05;85.66;98641.91;4138274;84;21326;-89
2021/01/17 02:09:39;;;;;;;9.23;4.87;;;;;;;-5.10;85.48;98649.44;4136174;84;21216;-88
2021/01/17 02:15:43;;;;;;;12.60;5.27;;;;;;;-5.17;85.50;98661.52;4135066;84;21180;-89
2021/01/17 02:21:59;;;;;;;9.13;4.70;;;;;;;-5.20;85.52;98666.87;4134220;84;21232;-88
2021/01/17 02:28:05;;;;;;;12.77;5.37;;;;;;;-5.20;85.52;98662.86;4132328;84;21205;-90
2021/01/17 02:34:08;;;;;;;;;;;;;;;-5.18;85.62;98675.92;4173589;82;21450;-89
2021/01/17 02:40:18;;;;;;;14.10;5.83;;;;;;;-5.20;85.49;98676.77;4241020;81;20214;-87
2021/01/17 02:46:19;;;;;;;12.47;6.50;;;;;;;-5.23;85.50;98692.01;4266592;81;21157;-89
2021/01/17 02:52:39;;;;;;;13.27;6.77;;;;;;;-5.27;85.41;98687.76;4268388;81;21602;-88
2021/01/17 02:58:42;;;;;;;24.73;9.17;;;;;;;-5.34;85.27;98684.60;4268223;81;21205;-88
2021/01/17 03:04:54;;;;;;;18.27;9.07;;;;;;;-5.38;85.33;98708.12;4243729;81;21275;-88
2021/01/17 03:10:56;;;;;;;21.53;10.17;;;;;;;-5.57;84.88;98716.52;4169117;83;21225;-89
2021/01/17 03:16:58;;;;;;;23.10;9.40;;;;;;;-5.72;84.77;98720.11;4251191;82;21161;-88
2021/01/17 03:22:59;;;;;;;18.50;9.23;;;;;;;-5.92;84.59;98726.89;4277055;82;21197;-88
2021/01/17 03:29:02;;;;;;;19.97;9.37;;;;;;;-6.02;84.30;98736.81;4197224;83;21176;-89
2021/01/17 03:35:05;;;;;;;18.33;8.30;;;;;;;-6.09;84.23;98745.66;4263521;82;21319;-89
2021/01/17 03:41:12;;;;;;;24.00;10.83;;;;;;;-6.30;83.53;98753.45;4249600;82;21180;-90
2021/01/17 03:47:15;;;;;;;22.20;8.03;;;;;;;-6.51;83.28;98760.70;4248268;82;21201;-89
2021/01/17 03:53:16;;;;;;;19.47;9.30;;;;;;;-6.66;83.22;98765.55;4251417;82;21334;-89
2021/01/17 03:59:19;;;;;;;21.00;9.27;;;;;;;-6.64;83.50;98771.94;4248931;82;21323;-87
2021/01/17 04:05:21;;;;;;;17.80;8.30;;;;;;;-6.73;82.92;98780.18;4247784;82;21265;-89
2021/01/17 04:11:22;;;;;;;20.57;7.87;;;;;;;-6.84;82.33;98784.72;4218162;82;21192;-90
2021/01/17 04:17:24;;;;;;;15.27;7.00;;;;;;;-7.21;81.88;98788.72;4215551;82;21199;-90
2021/01/17 04:23:25;;;;;;;16.30;7.40;;;;;;;-7.44;82.22;98798.54;4238298;83;21191;-88
2021/01/17 04:29:27;;;;;;;12.70;6.63;;;;;;;-7.47;81.77;98801.73;4219462;82;21655;-88
2021/01/17 04:35:29;;;;;;;20.10;8.27;;;;;;;-7.50;81.81;98812.89;4159224;83;21293;-89
2021/01/17 04:41:30;;;;;;;17.00;7.17;;;;;;;-7.54;81.67;98815.27;4201508;83;21351;-90
2021/01/17 04:47:35;;;;;;;20.30;7.73;;;;;;;-7.62;82.07;98822.42;4198682;83;21629;-88
2021/01/17 04:53:37;;;;;;;14.90;6.20;;;;;;;-7.65;82.06;98834.91;4199519;83;21181;-88
2021/01/17 04:59:44;;;;;;;13.97;6.17;;;;;;;-7.57;81.73;98836.25;4170111;83;21202;-88
2021/01/17 05:06:08;;;;;;;17.17;6.70;;;;;;;-7.77;81.75;98850.81;4269152;82;21627;-89
2021/01/17 05:12:14;;;;;;;14.37;7.00;;;;;;;-7.73;82.67;98854.02;4266203;82;21149;-90
2021/01/17 05:18:16;;;;;;;22.23;8.30;;;;;;;-7.87;80.70;98856.08;4239902;82;21200;-88
2021/01/17 05:24:21;;;;;;;20.23;7.87;;;;;;;-7.96;81.05;98870.40;4245691;82;21181;-88
2021/01/17 05:30:25;;;;;;;17.83;7.83;;;;;;;-7.92;81.17;98879.44;4241874;82;21777;-90
2021/01/17 05:36:26;;;;;;;17.20;7.27;;;;;;;-7.84;81.24;98888.25;4156569;83;21246;-84
2021/01/17 05:42:34;;;;;;;20.43;8.60;;;;;;;-7.83;81.34;98894.37;4162096;83;21522;-83
2021/01/17 05:48:35;;;;;;;20.07;7.97;;;;;;;-7.74;81.69;98898.13;4168163;83;21366;-85
2021/01/17 05:54:40;;;;;;;24.87;9.37;;;;;;;-7.94;80.69;98908.66;4165559;83;21212;-84
2021/01/17 06:00:41;;;;;;;18.83;7.97;;;;;;;-8.12;80.99;98908.55;4158919;83;21146;-84
2021/01/17 06:06:46;;;;;;;17.13;8.00;;;;;;;-8.18;80.89;98918.87;4163077;83;21156;-84
2021/01/17 06:12:51;;;;;;;18.67;7.50;;;;;;;-8.14;81.29;98921.28;4140114;83;21160;-84
2021/01/17 06:18:59;;;;;;;25.87;10.93;;;;;;;-8.20;81.09;98930.27;4162900;83;21807;-85
2021/01/17 06:25:05;;;;;;;25.37;11.40;;;;;;;-8.29;81.83;98941.95;4156935;83;21799;-84
2021/01/17 06:31:09;;;;;;;23.17;10.23;;;;;;;-8.04;82.24;98957.73;4103860;85;21626;-84
2021/01/17 06:37:12;;;;;;;20.77;9.00;;;;;;;-8.08;80.95;98958.80;4201121;83;21249;-84
2021/01/17 06:43:15;;;;;;;25.17;9.40;;;;;;;-8.15;80.81;98963.52;4222563;83;21171;-83
2021/01/17 06:49:20;;;;;;;24.27;9.67;;;;;;;-8.18;81.43;98979.96;4221637;83;21174;-84
2021/01/17 06:55:21;;;;;;;33.67;11.93;;;;;;;-8.20;80.86;98986.05;4231034;82;21201;-84
2021/01/17 07:01:28;;;;;;;25.43;10.40;;;;;;;-8.27;80.44;98988.16;4232723;82;21343;-84
2021/01/17 07:08:05;;;;;;;33.00;11.93;;;;;;;-8.42;80.42;98999.97;4207974;83;21149;-83
2021/01/17 07:14:07;;;;;;;27.87;12.80;;;;;;;-8.49;80.48;99017.97;4127644;84;21228;-84
2021/01/17 07:20:12;;;;;;;31.23;14.03;;;;;;;-8.44;80.66;99024.66;4226709;82;21169;-84
2021/01/17 07:26:17;;;;;;;33.50;15.07;;;;;;;-8.46;80.86;99037.38;4240559;82;21758;-84
2021/01/17 07:32:33;;;;;;;34.55;12.73;;;;;;;-8.29;80.86;99042.85;4237222;82;21307;-85
2021/01/17 07:38:41;;;;;;;29.23;12.33;;;;;;;-8.30;80.38;99046.55;4239530;82;21338;-85
2021/01/17 07:44:47;;;;;;;30.63;12.27;;;;;;;-8.27;80.28;99051.34;4133084;84;21363;-84
2021/01/17 07:50:52;;;;;;;30.35;11.57;;;;;;;-8.02;80.52;99064.03;4148067;84;21156;-85
2021/01/17 07:56:56;;;;;;;29.90;12.07;;;;;;;-8.05;80.06;99064.54;4237652;82;21507;-84
2021/01/17 08:02:58;;;;;;;33.60;11.57;;;;;;;-7.91;80.25;99063.58;4220115;82;21223;-84
2021/01/17 08:08:59;;;;;;;27.57;11.00;;;;;;;-7.59;80.19;99065.14;4213128;83;21210;-85
2021/01/17 08:21:31;;;;;;;43.93;14.83;;;;;;;-6.82;79.15;99071.91;4165871;81;21152;-87
2021/01/17 08:27:42;;;;;;;37.80;14.33;;;;;;;-6.32;79.24;99073.91;4227904;83;21182;-84
2021/01/17 08:33:46;;;;;;;27.27;12.60;;;;;;;-6.02;79.08;99074.76;4287242;81;21133;-84
2021/01/17 08:39:51;;;;;;;34.73;12.90;;;;;;;-5.86;78.94;99083.03;4210231;83;21199;-84
2021/01/17 08:45:51;;;;;;;28.70;13.00;;;;;;;-5.85;78.34;99087.81;4165999;84;21839;-85
2021/01/17 08:52:01;;;;;;;30.03;13.73;;;;;;;-5.96;78.33;99105.67;4222964;83;21191;-85
2021/01/17 08:58:03;;;;;;;33.37;14.67;;;;;;;-5.58;78.38;99112.32;4278814;81;21204;-84
2021/01/17 09:04:06;;;;;;;34.30;14.13;;;;;;;-5.36;77.16;99122.98;4284806;81;21589;-84
2021/01/17 09:10:15;;;;;;;39.47;15.20;;;;;;;-5.26;77.38;99139.52;4282504;81;21324;-84
2021/01/17 09:16:18;;;;;;;36.37;13.67;;;;;;;-5.29;76.79;99146.18;4222508;82;21857;-85
2021/01/17 09:22:20;;;;;;;34.50;14.57;;;;;;;-5.58;76.69;99148.33;4240225;82;21149;-84
2021/01/17 09:28:22;;;;;;;37.00;14.90;;;;;;;-5.76;76.93;99162.20;4211465;83;21203;-85
2021/01/17 09:34:28;;;;;;;45.97;17.97;;;;;;;-5.46;76.80;99167.00;4214750;83;21182;-84
2021/01/17 09:40:40;;;;;;;36.63;16.90;;;;;;;-5.34;76.57;99168.08;4216602;83;21188;-84
2021/01/17 09:46:42;;;;;;;39.20;17.03;;;;;;;-5.66;76.37;99171.00;4213747;83;21242;-85
2021/01/17 09:52:43;;;;;;;39.77;17.10;;;;;;;-4.99;77.12;99177.36;4217238;83;21179;-84
2021/01/17 09:58:45;;;;;;;36.40;16.13;;;;;;;-4.89;75.82;99177.36;4283587;81;21159;-84
2021/01/17 10:04:47;;;;;;;34.13;14.30;;;;;;;-5.04;75.60;99182.70;4284768;81;22429;-84
2021/01/17 10:10:49;;;;;;;39.63;16.93;;;;;;;-5.34;75.19;99184.86;4276684;81;21203;-84
2021/01/17 10:16:54;;;;;;;38.03;15.90;;;;;;;-5.40;75.53;99186.46;4280676;81;21508;-84
2021/01/17 10:23:05;;;;;;;34.07;14.47;;;;;;;-5.67;74.62;99193.94;4284278;81;21191;-84
2021/01/17 10:29:06;;;;;;;39.40;15.57;;;;;;;-6.09;75.07;99196.02;4281872;81;21159;-84
2021/01/17 10:35:09;;;;;;;37.23;14.63;;;;;;;-5.92;75.03;99200.59;4285917;81;21895;-85
2021/01/17 10:41:14;;;;;;;33.00;15.20;;;;;;;-5.73;74.27;99211.00;4284185;81;21608;-84
2021/01/17 10:47:48;;;;;;;37.50;15.23;;;;;;;-5.59;74.53;99207.53;4283852;81;21140;-85
2021/01/17 10:53:51;;;;;;;34.80;15.53;;;;;;;-5.67;73.96;99213.38;4279240;81;21171;-85
2021/01/17 10:59:55;;;;;;;32.20;15.03;;;;;;;-5.77;73.88;99227.23;4209706;83;21191;-84
2021/01/17 11:06:14;;;;;;;35.07;16.43;;;;;;;-5.77;74.02;99228.05;4208897;83;21351;-85
2021/01/17 11:12:15;;;;;;;40.13;17.17;;;;;;;-5.80;73.03;99218.44;4237042;82;21181;-84
2021/01/17 11:18:21;;;;;;;42.83;17.77;;;;;;;-5.77;73.22;99222.72;4215048;83;21178;-84
2021/01/17 11:24:35;;;;;;;42.47;17.83;;;;;;;-5.43;73.45;99220.34;4219204;83;21182;-85
2021/01/17 11:30:37;;;;;;;50.17;18.20;;;;;;;-5.34;73.35;99219.55;4217251;82;21192;-85
2021/01/17 11:36:39;;;;;;;42.77;19.10;;;;;;;-4.97;73.17;99216.09;4238099;81;21780;-84
2021/01/17 11:42:40;;;;;;;39.37;16.27;;;;;;;-4.62;72.97;99213.08;4269397;81;21144;-85
2021/01/17 11:48:44;;;;;;;42.53;16.57;;;;;;;-4.47;72.46;99208.49;4267915;81;21848;-85
2021/01/17 11:54:45;;;;;;;38.43;16.90;;;;;;;-4.41;72.11;99213.27;4209375;83;21146;-85
2021/01/17 12:00:57;;;;;;;40.40;17.73;;;;;;;-4.60;72.13;99205.60;4267052;81;21192;-85
2021/01/17 12:07:07;;;;;;;41.27;16.20;;;;;;;-4.93;71.06;99214.99;4285483;81;21641;-85
2021/01/17 12:13:11;;;;;;;42.03;19.53;;;;;;;-5.08;71.75;99204.34;4257044;82;21634;-85
2021/01/17 12:19:15;;;;;;;47.37;18.23;;;;;;;-5.17;71.74;99214.74;4259601;82;21601;-85
2021/01/17 12:25:17;;;;;;;39.77;16.53;;;;;;;-5.43;70.87;99213.67;4262394;82;21217;-84
2021/01/17 12:31:21;;;;;;;34.13;13.60;;;;;;;-5.60;70.43;99205.94;4250816;82;21179;-85
2021/01/17 12:37:22;;;;;;;30.57;12.70;;;;;;;-5.83;70.38;99214.47;4235891;82;22540;-85
2021/01/17 12:43:24;;;;;;;26.77;12.37;;;;;;;-6.01;70.19;99216.83;4203218;83;21363;-85
2021/01/17 12:49:25;;;;;;;30.50;13.33;;;;;;;-6.03;70.93;99220.28;4203084;83;21161;-85
2021/01/17 12:55:27;;;;;;;27.00;12.17;;;;;;;-6.10;69.55;99235.17;4201951;83;21778;-85
2021/01/17 13:01:28;;;;;;;38.00;14.50;;;;;;;-6.03;71.24;99238.94;4197075;83;21166;-85
2021/01/17 13:07:30;;;;;;;42.83;18.43;;;;;;;-5.84;70.67;99251.52;4186608;83;21738;-85
2021/01/17 13:13:33;;;;;;;35.53;15.97;;;;;;;-5.83;71.40;99257.66;4183940;83;21201;-85
2021/01/17 13:19:34;;;;;;;40.10;16.47;;;;;;;-5.78;71.23;99259.79;4187175;83;21204;-84
2021/01/17 13:25:38;;;;;;;41.73;17.83;;;;;;;-5.83;70.98;99273.65;4195866;83;21364;-85
2021/01/17 13:31:39;;;;;;;44.83;19.67;;;;;;;-5.92;71.19;99269.34;4194114;83;21184;-82
2021/01/17 13:37:41;;;;;;;47.27;20.07;;;;;;;-5.95;70.95;99268.53;4158343;83;21202;-83
2021/01/17 13:43:43;;;;;;;43.70;18.23;;;;;;;-6.02;71.24;99274.66;4103893;85;21300;-82
2021/01/17 13:49:44;;;;;;;37.00;15.03;;;;;;;-5.99;71.21;99279.46;4173316;83;21207;-82
2021/01/17 13:55:46;;;;;;;35.70;14.10;;;;;;;-6.04;71.15;99295.42;4170484;83;21231;-83
2021/01/17 14:01:47;;;;;;;35.80;15.17;;;;;;;-5.96;71.67;99292.78;4170699;83;21837;-82
2021/01/17 14:07:54;;;;;;;27.83;12.40;;;;;;;-6.02;70.92;99305.83;4095476;85;21324;-82
2021/01/17 14:13:56;;;;;;;39.40;16.27;;;;;;;-6.27;70.29;99306.52;4089447;85;21229;-82
2021/01/17 14:19:58;;;;;;;38.97;14.60;;;;;;;-6.17;71.17;99314.55;4149429;84;21236;-83
2021/01/17 14:25:59;;;;;;;33.23;14.93;;;;;;;-6.15;71.20;99316.98;4146753;84;21184;-83
2021/01/17 14:32:02;;;;;;;43.80;15.83;;;;;;;-6.07;71.45;99319.94;4162546;83;21265;-83
2021/01/17 14:38:04;;;;;;;45.00;17.77;;;;;;;-6.20;71.44;99318.28;4089332;83;21705;-83
2021/01/17 14:44:05;;;;;;;45.03;17.70;;;;;;;-6.21;71.37;99326.80;4148398;83;21253;-85
2021/01/17 14:50:09;;;;;;;45.77;19.50;;;;;;;-6.27;71.58;99328.35;4264540;82;21165;-85
2021/01/17 14:56:10;;;;;;;44.27;17.80;;;;;;;-6.32;71.60;99331.80;4263779;82;22000;-85
2021/01/17 15:02:12;;;;;;;44.73;16.83;;;;;;;-6.36;71.85;99335.23;4266441;82;21637;-85
2021/01/17 15:08:13;;;;;;;50.33;17.00;;;;;;;-6.40;71.26;99338.15;4262767;82;21204;-85
2021/01/17 15:14:15;;;;;;;47.37;18.30;;;;;;;-6.54;71.74;99339.91;4106097;82;27027;-84
2021/01/17 15:20:17;;;;;;;43.63;17.47;;;;;;;-6.54;71.79;99339.11;4060459;86;21219;-85
2021/01/17 15:26:20;;;;;;;42.40;19.07;;;;;;;-6.61;71.68;99343.31;4069195;86;21191;-85
2021/01/17 15:32:21;;;;;;;53.90;20.30;;;;;;;-6.67;71.98;99349.66;4066014;86;21215;-85
2021/01/17 15:38:23;;;;;;;53.63;21.03;;;;;;;-6.76;71.63;99357.85;4013861;86;31401;-85
2021/01/17 15:44:25;;;;;;;75.80;26.93;;;;;;;-6.80;72.23;99363.42;3992851;87;21186;-85
2021/01/17 15:50:26;;;;;;;90.47;31.00;;;;;;;-6.94;71.92;99370.19;4014911;86;21271;-85
2021/01/17 15:56:28;;;;;;;91.67;34.30;;;;;;;-7.14;72.19;99374.00;4012002;86;21697;-85
2021/01/17 16:02:33;;;;;;;106.17;37.80;;;;;;;-7.18;72.56;99372.91;4016459;86;21268;-85
2021/01/17 16:08:35;;;;;;;85.47;31.20;;;;;;;-7.18;72.71;99380.89;4021566;86;21166;-84
2021/01/17 16:14:36;;;;;;;83.60;32.10;;;;;;;-7.26;72.57;99377.34;4012141;86;21232;-85
2021/01/17 16:20:38;;;;;;;82.90;30.90;;;;;;;-7.29;72.89;99396.47;4016686;86;21683;-85
2021/01/17 16:26:46;;;;;;;82.33;31.00;;;;;;;-7.22;73.23;99409.58;4021611;86;21236;-85
2021/01/17 16:32:48;;;;;;;89.47;34.70;;;;;;;-7.11;73.11;99421.39;4019946;86;21744;-84
2021/01/17 16:38:50;;;;;;;101.73;37.40;;;;;;;-7.19;72.98;99415.73;4026949;85;21197;-84
2021/01/17 16:44:52;;;;;;;76.27;27.87;;;;;;;-7.13;73.26;99423.52;4059146;85;21233;-84
2021/01/17 16:50:53;;;;;;;84.13;29.80;;;;;;;-7.10;73.16;99415.03;4058318;85;21241;-85
2021/01/17 16:56:55;;;;;;;82.30;30.10;;;;;;;-7.07;73.35;99427.02;4058698;85;21694;-84
2021/01/17 17:02:57;;;;;;;61.77;24.73;;;;;;;-7.18;72.65;99432.77;4043734;85;21209;-85
2021/01/17 17:08:58;;;;;;;91.97;32.77;;;;;;;-7.33;72.29;99438.45;4058797;85;21685;-84
2021/01/17 17:15:00;;;;;;;79.33;30.80;;;;;;;-7.57;72.14;99441.88;4055327;84;21217;-86
2021/01/17 17:21:01;;;;;;;82.27;30.57;;;;;;;-7.76;72.17;99453.05;4046570;85;21201;-85
2021/01/17 17:27:03;;;;;;;95.20;34.50;;;;;;;-8.12;72.45;99455.22;4056859;85;22426;-84
2021/01/17 17:33:05;;;;;;;118.93;40.73;;;;;;;-8.21;72.80;99465.16;4049946;85;21196;-85
2021/01/17 17:46:42;;;;;;;91.07;35.43;;;;;;;-8.28;72.85;99480.47;4066276;85;21200;-84
2021/01/17 17:52:45;;;;;;;99.20;34.47;;;;;;;-8.36;72.98;99487.00;4048752;85;22443;-84
2021/01/17 17:58:46;;;;;;;101.67;37.47;;;;;;;-8.30;72.91;99486.57;4076420;85;21637;-83
2021/01/17 18:04:49;;;;;;;91.83;35.03;;;;;;;-8.39;73.00;99488.81;4080475;85;22086;-82
2021/01/17 18:10:50;;;;;;;89.20;33.90;;;;;;;-8.41;73.03;99504.16;4077148;85;21187;-83
2021/01/17 18:16:53;;;;;;;99.50;37.83;;;;;;;-8.44;73.15;99509.17;4073431;85;21940;-83
2021/01/17 18:22:55;;;;;;;100.83;35.07;;;;;;;-8.47;73.11;99510.44;4077037;85;21276;-83
2021/01/17 18:28:57;;;;;;;104.43;35.70;;;;;;;-8.53;73.04;99515.39;4079512;85;21261;-83
2021/01/17 18:34:59;;;;;;;90.53;31.83;;;;;;;-8.62;73.23;99518.66;4075253;85;21219;-85
2021/01/17 18:41:00;;;;;;;106.40;39.70;;;;;;;-8.70;73.27;99477.40;4091826;84;21205;-83
2021/01/17 18:47:02;;;;;;;84.60;34.10;;;;;;;-8.79;73.71;99486.80;3941068;84;9999682;-84
2021/01/17 18:53:03;;;;;;;104.97;36.37;;;;;;;-8.73;73.25;99475.22;4078025;85;21196;-84
2021/01/17 18:59:05;;;;;;;106.27;39.17;;;;;;;-8.80;73.53;99489.69;4113186;83;21398;-84
2021/01/17 19:05:08;;;;;;;91.47;34.43;;;;;;;-8.78;73.48;99488.91;4112092;84;21555;-84
2021/01/17 19:11:09;;;;;;;106.30;34.93;;;;;;;-8.79;73.46;99485.98;4088992;85;21244;-83
2021/01/17 19:17:11;;;;;;;94.17;33.77;;;;;;;-8.79;74.01;99491.29;4042325;86;21233;-84
2021/01/17 19:23:13;;;;;;;100.53;33.53;;;;;;;-8.64;74.47;99502.16;4086643;85;21995;-83
2021/01/17 19:29:15;;;;;;;103.23;37.67;;;;;;;-8.54;73.69;99513.78;4031113;86;21629;-83
2021/01/17 19:35:18;;;;;;;109.30;38.87;;;;;;;-8.48;73.77;99513.34;4072910;85;21264;-84
2021/01/17 19:41:20;;;;;;;117.70;40.70;;;;;;;-8.58;73.67;99518.48;4080053;85;21212;-85
2021/01/17 19:47:22;;;;;;;109.27;39.87;;;;;;;-8.70;73.90;99519.86;4075936;85;21940;-85
2021/01/17 19:53:23;;;;;;;118.90;42.77;;;;;;;-8.59;74.22;99522.98;4081620;85;21358;-84
2021/01/17 19:59:25;;;;;;;162.10;51.83;;;;;;;-8.33;74.17;99524.23;4078687;85;21666;-85
2021/01/17 20:05:26;;;;;;;151.27;51.83;;;;;;;-8.39;74.34;99519.34;4077409;85;21611;-85
2021/01/17 20:11:29;;;;;;;98.00;35.03;;;;;;;-8.42;73.97;99529.63;4081154;85;21359;-83
2021/01/17 20:17:30;;;;;;;101.77;37.90;;;;;;;-8.63;74.14;99525.81;4083399;85;21751;-85
2021/01/17 20:23:32;;;;;;;99.73;35.30;;;;;;;-8.55;74.62;99535.27;4078114;85;21227;-85
2021/01/17 20:29:33;;;;;;;96.20;34.30;;;;;;;-8.51;74.65;99540.36;4079802;85;21237;-84
2021/01/17 20:35:34;;;;;;;91.63;34.67;;;;;;;-8.44;74.74;99543.69;4076465;85;21769;-84
2021/01/17 20:41:38;;;;;;;96.53;36.13;;;;;;;-8.40;74.38;99543.48;4077726;85;21161;-82
2021/01/17 20:47:40;;;;;;;96.10;35.57;;;;;;;-8.53;74.31;99540.60;4077925;85;21223;-83
2021/01/17 20:53:45;;;;;;;96.60;35.20;;;;;;;-8.47;74.80;99540.97;4081750;85;21748;-83
2021/01/17 20:59:46;;;;;;;95.80;35.10;;;;;;;-8.52;74.78;99552.83;4081713;85;21809;-82
2021/01/17 21:05:47;;;;;;;103.60;38.43;;;;;;;-8.45;75.28;99548.19;4083596;85;21620;-83
2021/01/17 21:11:49;;;;;;;113.20;40.77;;;;;;;-8.50;74.37;99562.69;4081909;84;21763;-83
2021/01/17 21:17:51;;;;;;;122.87;43.37;;;;;;;-8.61;74.77;99569.37;4078361;85;21204;-82
2021/01/17 21:23:53;;;;;;;121.17;45.07;;;;;;;-8.73;74.58;99564.64;4076765;85;21236;-82
2021/01/17 21:29:54;;;;;;;112.70;42.30;;;;;;;-8.70;75.18;99576.11;4078053;85;21212;-84
2021/01/17 21:35:55;;;;;;;126.70;43.77;;;;;;;-8.64;75.23;99578.62;4079746;85;21687;-84
2021/01/17 21:41:57;;;;;;;132.83;46.60;;;;;;;-8.63;75.22;99566.17;4083798;84;21248;-83
2021/01/17 21:47:58;;;;;;;151.53;50.73;;;;;;;-8.52;74.79;99571.95;3966552;84;9999544;-83
2021/01/17 21:54:00;;;;;;;145.50;45.97;;;;;;;-8.56;75.35;99574.78;4078010;85;21221;-83
2021/01/17 22:00:08;;;;;;;156.00;49.57;;;;;;;-8.63;75.39;99589.52;3961829;88;21700;-83
2021/01/17 22:06:18;;;;;;;160.17;54.67;;;;;;;-8.63;75.59;99586.08;4062706;86;21173;-84
2021/01/17 22:12:20;;;;;;;199.87;62.20;;;;;;;-8.53;75.54;99590.23;4061641;86;21178;-84
2021/01/17 22:18:21;;;;;;;186.63;61.97;;;;;;;-8.47;75.71;99595.94;4059893;86;21726;-84
2021/01/17 22:24:23;;;;;;;206.50;69.13;;;;;;;-8.49;75.51;99599.34;4039035;85;21232;-84
2021/01/17 22:30:24;;;;;;;176.47;59.57;;;;;;;-8.49;75.73;99590.84;4008055;87;21201;-84
2021/01/17 22:36:26;;;;;;;156.73;49.30;;;;;;;-8.51;75.49;99573.03;4021731;87;21216;-84
2021/01/17 22:42:32;;;;;;;147.87;50.60;;;;;;;-8.59;75.08;99577.91;4056356;86;21358;-84
2021/01/17 22:48:34;;;;;;;142.40;47.67;;;;;;;-8.58;75.63;99570.25;4043719;86;21185;-83
2021/01/17 22:54:35;;;;;;;120.97;43.43;;;;;;;-8.60;75.47;99576.31;4044091;86;21257;-83
2021/01/17 23:00:37;;;;;;;134.70;45.07;;;;;;;-8.60;75.64;99589.58;4044721;86;21681;-84
2021/01/17 23:06:38;;;;;;;139.73;46.03;;;;;;;-8.63;75.36;99585.53;4109841;84;21320;-83
2021/01/17 23:12:40;;;;;;;124.17;43.03;;;;;;;-8.66;75.60;99578.59;4045707;85;22408;-84
2021/01/17 23:18:42;;;;;;;127.60;44.07;;;;;;;-8.64;75.55;99586.59;4046286;86;21161;-83
2021/01/17 23:24:43;;;;;;;129.17;44.13;;;;;;;-8.80;74.93;99581.23;4047193;86;21864;-83
2021/01/17 23:30:45;;;;;;;138.00;45.47;;;;;;;-8.97;75.35;99581.70;4047862;86;21197;-83
2021/01/17 23:36:47;;;;;;;120.60;42.03;;;;;;;-8.91;75.58;99574.91;4043616;86;21233;-84
2021/01/17 23:42:48;;;;;;;123.10;39.73;;;;;;;-8.97;75.29;99575.06;4043829;86;21671;-84
2021/01/17 23:48:50;;;;;;;103.13;39.63;;;;;;;-8.96;75.78;99567.37;4045969;86;21193;-83
2021/01/17 23:54:51;;;;;;;116.63;40.30;;;;;;;-8.97;75.44;99567.11;4047703;86;21355;-83
